Time;durP1;ratioP1;P1;durP2;ratioP2;P2;SDS_P1;SDS_P2;PMS_P1;PMS_P2;Temp;Humidity;BMP_temperature;BMP_pressure;BME280_temperature;BME280_humidity;BME280_pressure;Samples;Min_cycle;Max_cycle;Signal;HPM_P1;HPM_P2
2022/03/02 00:02:32;;;;;;;21.98;12.73;;;;;;;1.48;75.09;102439.88;10315681;28;20068;-86
2022/03/02 00:07:33;;;;;;;28.13;12.38;;;;;;;1.35;74.23;102428.22;10314683;28;20070;-85
2022/03/02 00:12:34;;;;;;;21.25;12.38;;;;;;;1.14;74.67;102430.25;10305101;28;20073;-86
2022/03/02 00:17:34;;;;;;;26.75;15.07;;;;;;;0.92;75.13;102424.41;10293888;28;20031;-85
2022/03/02 00:22:35;;;;;;;26.13;15.60;;;;;;;0.96;75.19;102420.50;10315391;28;20030;-86
2022/03/02 00:27:35;;;;;;;23.80;16.98;;;;;;;1.06;73.28;102427.59;10330128;28;20076;-85
2022/03/02 00:32:37;;;;;;;33.38;17.27;;;;;;;1.08;74.13;102433.84;10307988;28;20114;-85
2022/03/02 00:37:37;;;;;;;34.33;17.70;;;;;;;0.91;75.22;102434.53;10308457;28;20026;-85
2022/03/02 00:42:38;;;;;;;28.90;16.17;;;;;;;0.96;76.18;102430.81;10289518;28;20035;-85
2022/03/02 00:47:39;;;;;;;23.90;15.05;;;;;;;0.97;75.13;102432.63;10273687;28;20070;-85
2022/03/02 00:52:39;;;;;;;24.27;14.85;;;;;;;0.76;75.67;102424.34;10291423;28;20422;-85
2022/03/02 00:57:40;;;;;;;29.25;17.25;;;;;;;0.56;75.73;102423.00;10290172;28;20117;-85
2022/03/02 01:02:40;;;;;;;25.88;15.70;;;;;;;0.41;76.34;102421.28;10296915;28;20394;-86
2022/03/02 01:07:41;;;;;;;28.00;16.67;;;;;;;0.31;77.13;102426.13;10288784;28;20058;-85
2022/03/02 01:12:42;;;;;;;27.40;15.75;;;;;;;0.23;76.13;102413.28;10300965;28;20035;-86
2022/03/02 01:17:43;;;;;;;28.47;16.63;;;;;;;-0.05;77.81;102416.94;10273563;28;20034;-86
2022/03/02 01:22:43;;;;;;;27.42;14.88;;;;;;;-0.18;78.88;102417.16;10320550;28;20026;-85
2022/03/02 01:27:44;;;;;;;25.55;15.68;;;;;;;-0.35;78.64;102412.66;10337657;28;20116;-85
2022/03/02 01:32:44;;;;;;;29.15;16.45;;;;;;;-0.52;79.76;102405.53;10317957;28;20108;-86
2022/03/02 01:37:45;;;;;;;24.40;12.98;;;;;;;-0.40;78.47;102396.66;10282055;28;20057;-85
2022/03/02 01:42:45;;;;;;;26.52;16.58;;;;;;;-0.32;78.48;102387.28;10306558;28;20117;-85
2022/03/02 01:47:46;;;;;;;22.85;13.05;;;;;;;-0.26;76.57;102387.06;10338903;28;20184;-86
2022/03/02 01:52:46;;;;;;;22.75;13.30;;;;;;;-0.31;76.63;102382.28;10342030;28;20064;-85
2022/03/02 01:57:47;;;;;;;18.48;11.77;;;;;;;-0.32;75.47;102375.31;10360951;28;20073;-85
2022/03/02 02:02:48;;;;;;;26.08;14.82;;;;;;;-0.40;75.93;102377.75;10325955;28;20517;-85
2022/03/02 02:07:48;;;;;;;24.92;14.60;;;;;;;-0.35;76.98;102377.53;10344665;28;20026;-85
2022/03/02 02:12:49;;;;;;;26.25;15.90;;;;;;;-0.34;77.30;102375.91;10343853;28;20508;-85
2022/03/02 02:17:49;;;;;;;26.20;15.07;;;;;;;-0.66;77.63;102381.69;10359203;28;20092;-86
2022/03/02 02:22:50;;;;;;;24.55;13.27;;;;;;;-0.87;78.41;102379.16;10319850;28;20501;-85
2022/03/02 02:27:51;;;;;;;28.10;16.20;;;;;;;-0.88;79.14;102375.69;10302942;28;20054;-85
2022/03/02 02:32:52;;;;;;;20.70;14.10;;;;;;;-1.08;78.88;102368.19;10340781;28;20058;-84
2022/03/02 02:37:52;;;;;;;27.15;17.25;;;;;;;-1.21;79.55;102371.84;10327332;28;20386;-86
2022/03/02 02:42:53;;;;;;;30.10;17.02;;;;;;;-1.31;80.55;102363.78;10340969;28;20088;-84
2022/03/02 02:47:54;;;;;;;28.20;15.77;;;;;;;-1.36;80.72;102355.56;10358987;28;20041;-85
2022/03/02 02:52:55;;;;;;;23.25;15.68;;;;;;;-1.38;81.13;102350.94;10317137;28;20087;-86
2022/03/02 02:57:56;;;;;;;28.20;16.73;;;;;;;-1.24;81.54;102344.91;10336183;28;20421;-86
2022/03/02 03:02:57;;;;;;;24.00;15.13;;;;;;;-1.24;80.94;102347.47;10314602;28;20046;-86
2022/03/02 03:08:03;;;;;;;27.23;15.65;;;;;;;-1.19;81.67;102343.78;10341111;28;20284;-86
2022/03/02 03:13:04;;;;;;;25.33;17.13;;;;;;;-1.24;81.22;102356.06;10301149;28;20474;-86
2022/03/02 03:18:05;;;;;;;24.58;14.70;;;;;;;-1.27;82.11;102345.44;10303333;28;20026;-86
2022/03/02 03:23:06;;;;;;;26.75;15.00;;;;;;;-1.24;81.39;102353.50;10355298;28;20033;-86
2022/03/02 03:28:07;;;;;;;23.88;14.35;;;;;;;-1.29;82.17;102346.91;10357144;28;20084;-86
2022/03/02 03:33:07;;;;;;;24.70;14.10;;;;;;;-1.27;82.28;102339.41;10333900;28;20052;-85
2022/03/02 03:38:08;;;;;;;24.90;17.13;;;;;;;-1.22;82.37;102336.63;10356875;28;20038;-86
2022/03/02 03:43:08;;;;;;;24.45;15.35;;;;;;;-1.30;82.25;102334.78;10303253;28;20065;-86
2022/03/02 03:48:09;;;;;;;23.33;14.02;;;;;;;-1.35;82.91;102329.13;10301399;28;20097;-86
2022/03/02 03:53:13;;;;;;;26.42;16.05;;;;;;;-1.21;82.61;102330.75;10369359;28;20076;-86
2022/03/02 03:58:13;;;;;;;28.75;14.25;;;;;;;-1.10;80.99;102331.09;10340173;28;20033;-86
2022/03/02 04:03:14;;;;;;;28.88;16.20;;;;;;;-1.21;81.30;102329.84;10303240;28;20034;-86
2022/03/02 04:08:15;;;;;;;27.85;15.93;;;;;;;-1.13;82.57;102333.31;10300996;28;20040;-85
2022/03/02 04:13:15;;;;;;;18.43;10.70;;;;;;;-1.17;82.44;102326.91;10335326;28;20041;-86
2022/03/02 04:18:16;;;;;;;27.02;14.63;;;;;;;-1.14;82.44;102323.75;10348842;28;20033;-86
2022/03/02 04:23:16;;;;;;;28.88;15.10;;;;;;;-1.16;82.16;102325.25;10311234;28;20076;-88
2022/03/02 04:28:17;;;;;;;30.63;16.00;;;;;;;-1.15;81.83;102315.16;10311646;28;20135;-85
2022/03/02 04:33:18;;;;;;;24.45;14.13;;;;;;;-1.13;82.06;102313.69;10314103;28;20035;-84
2022/03/02 04:38:18;;;;;;;22.77;13.67;;;;;;;-1.05;81.55;102309.44;10331796;28;20066;-85
2022/03/02 04:43:19;;;;;;;24.08;15.02;;;;;;;-1.02;81.82;102307.22;10311322;28;20081;-84
2022/03/02 04:48:19;;;;;;;30.83;13.30;;;;;;;-1.12;81.59;102301.75;10332217;28;20045;-83
2022/03/02 04:53:23;;;;;;;22.53;12.67;;;;;;;-1.24;81.28;102294.41;10348785;28;20036;-84
2022/03/02 04:58:24;;;;;;;24.45;14.50;;;;;;;-1.35;81.18;102295.72;10342621;28;20038;-83
2022/03/02 05:03:24;;;;;;;28.42;15.63;;;;;;;-1.33;81.38;102298.47;10347442;28;20033;-83
2022/03/02 05:08:25;;;;;;;31.60;14.10;;;;;;;-1.29;80.80;102292.06;10298575;28;20121;-82
2022/03/02 05:13:25;;;;;;;20.42;13.35;;;;;;;-1.20;80.28;102282.88;10319108;28;20065;-81
2022/03/02 05:18:25;;;;;;;23.65;13.48;;;;;;;-1.07;80.50;102285.19;10316292;28;20080;-81
2022/03/02 05:23:27;;;;;;;23.67;12.43;;;;;;;-1.14;79.41;102277.50;10320731;28;20109;-83
2022/03/02 05:28:27;;;;;;;21.13;14.00;;;;;;;-1.11;78.71;102270.16;10340416;28;20457;-83
2022/03/02 05:33:28;;;;;;;19.75;12.45;;;;;;;-1.10;78.21;102274.56;10342130;28;20084;-84
2022/03/02 05:38:28;;;;;;;21.63;13.82;;;;;;;-1.13;77.75;102288.00;10356834;28;20034;-82
2022/03/02 05:43:29;;;;;;;23.80;12.43;;;;;;;-1.15;78.09;102293.66;10303043;28;20490;-84
2022/03/02 05:48:29;;;;;;;22.35;12.45;;;;;;;-1.06;79.34;102295.69;10331656;28;20034;-84
2022/03/02 05:53:30;;;;;;;21.45;13.80;;;;;;;-1.17;79.89;102288.38;10312812;28;20034;-84
2022/03/02 05:58:31;;;;;;;24.70;14.05;;;;;;;-1.24;80.39;102294.41;10331146;28;20041;-85
2022/03/02 06:03:32;;;;;;;21.00;13.75;;;;;;;-1.29;80.74;102279.22;10348204;28;20057;-82
2022/03/02 06:08:32;;;;;;;22.45;13.88;;;;;;;-1.34;80.15;102282.16;10345049;28;20060;-82
2022/03/02 06:13:34;;;;;;;22.38;13.25;;;;;;;-1.33;81.27;102281.41;10357135;28;20078;-81
2022/03/02 06:18:35;;;;;;;23.73;13.65;;;;;;;-1.27;80.66;102283.78;10339643;28;20057;-82
2022/03/02 06:23:36;;;;;;;25.38;15.13;;;;;;;-1.29;80.72;102290.38;10333595;28;20068;-82
2022/03/02 06:28:36;;;;;;;25.88;13.45;;;;;;;-1.33;81.08;102289.13;10321343;28;20073;-83
2022/03/02 06:33:36;;;;;;;22.98;12.80;;;;;;;-1.31;81.16;102286.72;10302146;28;20070;-82
2022/03/02 06:38:37;;;;;;;18.92;10.90;;;;;;;-1.24;81.09;102285.81;10316624;28;20040;-82
2022/03/02 06:43:53;;;;;;;21.92;13.35;;;;;;;-1.12;81.46;102281.19;10322184;28;20064;-83
2022/03/02 06:48:57;;;;;;;24.83;12.00;;;;;;;-1.04;81.80;102295.84;10330465;28;20398;-82
2022/03/02 06:53:58;;;;;;;18.42;12.57;;;;;;;-0.91;81.28;102287.94;10356379;28;20134;-81
2022/03/02 06:58:58;;;;;;;16.70;9.25;;;;;;;-0.60;76.46;102286.34;10333886;28;20395;-82
2022/03/02 07:03:59;;;;;;;21.00;12.13;;;;;;;-0.37;74.68;102286.41;10323118;28;20129;-82
2022/03/02 07:09:00;;;;;;;19.25;11.18;;;;;;;-0.23;73.46;102290.56;10346167;28;20422;-82
2022/03/02 07:14:00;;;;;;;17.38;11.10;;;;;;;0.06;71.35;102277.50;10316393;28;20033;-82
2022/03/02 07:19:01;;;;;;;19.73;10.93;;;;;;;0.54;68.60;102281.88;10304510;28;20088;-82
2022/03/02 07:24:32;;;;;;;18.58;11.02;;;;;;;0.82;69.91;102290.97;10357412;28;20117;-82
2022/03/02 07:29:34;;;;;;;17.08;9.85;;;;;;;1.38;68.07;102296.06;10322155;28;20049;-83
2022/03/02 07:34:35;;;;;;;17.48;11.52;;;;;;;2.40;65.43;102292.91;10328629;28;20034;-82
2022/03/02 07:39:36;;;;;;;18.50;10.45;;;;;;;3.43;60.23;102297.25;10312332;28;20046;-83
2022/03/02 07:44:36;;;;;;;19.70;9.77;;;;;;;3.33;58.50;102297.09;10343786;28;20111;-82
2022/03/02 07:49:37;;;;;;;19.27;10.82;;;;;;;3.15;60.56;102281.56;10339235;28;20041;-83
2022/03/02 07:54:38;;;;;;;27.38;13.23;;;;;;;3.29;56.44;102280.38;10373732;28;20053;-83
2022/03/02 07:59:41;;;;;;;17.20;10.97;;;;;;;3.46;57.74;102269.09;10334520;28;20525;-83
2022/03/02 08:04:44;;;;;;;13.57;7.82;;;;;;;3.75;55.45;102267.56;10315807;28;20673;-82
2022/03/02 08:09:44;;;;;;;17.58;9.85;;;;;;;3.87;54.24;102257.44;10332700;28;20050;-84
2022/03/02 08:14:45;;;;;;;16.83;10.82;;;;;;;4.13;54.83;102259.06;10347730;28;20038;-84
2022/03/02 08:19:48;;;;;;;16.17;9.48;;;;;;;4.28;51.62;102263.13;10354952;28;20118;-84
2022/03/02 08:24:54;;;;;;;16.08;9.88;;;;;;;4.45;51.71;102261.22;10337534;28;20040;-84
2022/03/02 08:29:56;;;;;;;16.50;10.63;;;;;;;4.50;54.72;102253.13;10346401;28;20033;-86
2022/03/02 08:34:57;;;;;;;14.82;9.02;;;;;;;4.48;50.90;102241.69;10356663;28;20405;-84
2022/03/02 08:39:58;;;;;;;11.77;7.63;;;;;;;4.84;50.36;102258.88;10326520;28;20034;-83
2022/03/02 08:44:58;;;;;;;13.82;9.02;;;;;;;5.00;47.92;102240.44;10320807;28;20042;-83
2022/03/02 08:50:27;;;;;;;18.67;10.05;;;;;;;5.08;47.69;102238.56;10311767;28;20050;-84
2022/03/02 08:55:31;;;;;;;16.85;9.52;;;;;;;5.24;46.64;102243.47;10330356;28;20037;-84
2022/03/02 09:00:33;;;;;;;22.15;10.55;;;;;;;5.36;48.39;102245.34;10300895;28;20048;-83
2022/03/02 09:05:34;;;;;;;18.50;8.90;;;;;;;5.67;48.39;102241.25;10329886;28;20068;-84
2022/03/02 09:10:37;;;;;;;17.77;9.00;;;;;;;5.80;47.05;102230.25;10308796;28;20027;-84
2022/03/02 09:15:41;;;;;;;12.57;7.47;;;;;;;6.04;47.39;102234.94;10330052;28;20473;-85
2022/03/02 09:20:43;;;;;;;17.25;10.05;;;;;;;6.10;45.83;102235.47;10326933;28;20030;-85
2022/03/02 09:25:44;;;;;;;14.83;8.87;;;;;;;6.41;43.76;102232.94;10329548;28;20106;-85
2022/03/02 09:30:44;;;;;;;16.88;9.43;;;;;;;6.57;45.10;102227.34;10327053;28;20102;-83
2022/03/02 09:35:45;;;;;;;27.55;16.05;;;;;;;7.12;44.49;102218.13;10347155;28;20050;-85
2022/03/02 09:40:45;;;;;;;14.63;8.18;;;;;;;7.39;40.18;102210.75;10355447;28;20070;-82
2022/03/02 09:45:48;;;;;;;15.10;9.73;;;;;;;8.62;37.67;102204.78;10336779;28;20066;-81
2022/03/02 09:50:49;;;;;;;12.98;8.18;;;;;;;11.70;33.64;102196.69;10359668;28;20477;-80
2022/03/02 09:55:49;;;;;;;14.43;8.52;;;;;;;14.12;31.25;102177.59;10337111;28;20077;-82
2022/03/02 10:00:50;;;;;;;13.80;8.05;;;;;;;16.38;27.44;102180.78;10329645;28;20166;-83
2022/03/02 10:05:50;;;;;;;13.18;7.90;;;;;;;16.63;26.62;102183.63;10360082;28;20500;-83
2022/03/02 10:10:52;;;;;;;12.65;9.23;;;;;;;18.92;23.83;102176.63;10325828;28;20022;-82
2022/03/02 10:15:53;;;;;;;16.80;8.93;;;;;;;18.61;22.89;102177.31;10328820;28;20474;-82
2022/03/02 10:20:59;;;;;;;11.23;7.87;;;;;;;19.15;25.16;102175.63;10333130;28;20401;-84
2022/03/02 10:26:01;;;;;;;12.20;8.77;;;;;;;18.61;22.01;102172.00;10302699;28;20371;-84
2022/03/02 10:31:23;;;;;;;14.73;9.48;;;;;;;18.51;22.71;102169.88;10370533;28;20064;-84
2022/03/02 10:36:28;;;;;;;11.60;8.75;;;;;;;18.50;22.41;102169.00;10353195;28;20045;-83
2022/03/02 10:41:29;;;;;;;9.32;7.45;;;;;;;18.67;21.71;102166.03;10325694;28;20026;-84
2022/03/02 10:46:30;;;;;;;11.15;8.10;;;;;;;18.62;21.77;102166.78;10326337;28;20061;-84
2022/03/02 10:51:32;;;;;;;20.90;10.57;;;;;;;18.05;22.89;102162.06;10337899;28;20056;-83
2022/03/02 10:56:38;;;;;;;12.75;8.95;;;;;;;18.79;21.82;102170.00;10345730;28;20137;-84
2022/03/02 11:01:39;;;;;;;12.02;8.77;;;;;;;19.88;20.93;102168.16;10313188;28;20033;-84
2022/03/02 11:06:39;;;;;;;14.88;8.52;;;;;;;19.32;21.36;102157.63;10309154;28;20039;-84
2022/03/02 11:11:40;;;;;;;11.50;7.15;;;;;;;19.45;21.19;102151.84;10330535;28;20049;-84
2022/03/02 11:16:43;;;;;;;14.02;8.38;;;;;;;18.92;21.99;102143.88;10323046;28;20046;-84
2022/03/02 11:21:44;;;;;;;10.68;7.38;;;;;;;19.05;21.91;102143.47;10328386;28;20051;-83
2022/03/02 11:26:48;;;;;;;12.20;7.97;;;;;;;20.37;20.29;102134.16;10338468;28;20121;-84
2022/03/02 11:31:50;;;;;;;11.65;7.43;;;;;;;19.21;22.98;102139.59;10314605;28;20026;-84
2022/03/02 11:36:59;;;;;;;;;;;;;;;19.21;22.17;102120.09;10333106;28;20029;-84
2022/03/02 11:42:04;;;;;;;13.20;8.25;;;;;;;18.86;22.67;102118.06;10329796;28;19917;-84
2022/03/02 11:47:05;;;;;;;10.73;7.95;;;;;;;18.77;21.96;102109.81;10330120;28;20054;-85
2022/03/02 11:52:07;;;;;;;12.60;7.50;;;;;;;18.91;22.98;102112.91;10325180;28;20049;-86
2022/03/02 11:57:08;;;;;;;11.38;7.78;;;;;;;19.14;21.62;102102.19;10331834;28;20042;-86
2022/03/02 12:02:16;;;;;;;11.33;8.00;;;;;;;19.89;20.11;102097.34;10329671;28;20034;-86
2022/03/02 12:07:16;;;;;;;9.68;8.23;;;;;;;19.11;21.19;102100.34;10335636;28;20096;-85
2022/03/02 12:12:22;;;;;;;15.60;7.80;;;;;;;20.10;19.44;102083.81;10354948;28;20556;-86
2022/03/02 12:17:33;;;;;;;8.73;6.78;;;;;;;20.17;20.62;102093.75;10341715;28;20525;-86
2022/03/02 12:22:35;;;;;;;12.00;7.78;;;;;;;20.25;22.06;102073.59;10352905;28;20064;-86
2022/03/02 12:27:36;;;;;;;9.10;6.88;;;;;;;20.05;21.32;102065.09;10304885;28;20486;-86
2022/03/02 12:32:38;;;;;;;11.25;8.20;;;;;;;19.13;21.57;102060.56;10318792;28;20033;-86
2022/03/02 12:37:39;;;;;;;;;;;;;;;19.34;20.46;102065.66;10331846;28;20019;-85
2022/03/02 12:42:41;;;;;;;11.75;7.90;;;;;;;18.18;22.67;102054.78;10328173;28;19926;-87
2022/03/02 12:47:42;;;;;;;12.00;8.48;;;;;;;19.39;21.63;102048.13;10305254;28;20082;-86
2022/03/02 12:52:43;;;;;;;12.77;7.93;;;;;;;20.33;19.69;102023.28;10308142;28;20038;-87
2022/03/02 12:57:46;;;;;;;13.35;10.23;;;;;;;20.46;19.60;102016.50;10305000;28;20031;-87
2022/03/02 13:02:54;;;;;;;12.25;8.70;;;;;;;19.45;21.92;102015.53;10305004;28;20042;-87
2022/03/02 13:07:58;;;;;;;11.30;8.80;;;;;;;20.72;19.99;102012.72;10302994;28;20054;-86
2022/03/02 13:13:00;;;;;;;11.68;7.55;;;;;;;20.43;21.18;102010.25;10329941;28;20085;-86
2022/03/02 13:18:09;;;;;;;10.20;7.55;;;;;;;19.67;20.08;102009.09;10293461;28;20039;-86
2022/03/02 13:23:10;;;;;;;11.75;8.77;;;;;;;19.50;21.88;102001.56;10307631;28;20113;-86
2022/03/02 13:28:12;;;;;;;10.95;8.70;;;;;;;19.40;21.08;101996.84;10321005;28;20026;-84
2022/03/02 13:33:13;;;;;;;12.35;9.05;;;;;;;19.35;23.18;102006.41;10294345;28;20057;-85
2022/03/02 13:38:13;;;;;;;11.95;9.73;;;;;;;20.20;20.44;101999.91;10311810;28;20141;-85
2022/03/02 13:43:14;;;;;;;12.95;8.65;;;;;;;19.77;20.57;101989.91;10311657;28;20086;-85
2022/03/02 13:48:22;;;;;;;13.93;7.90;;;;;;;19.64;19.80;101987.78;10344494;28;20042;-86
2022/03/02 13:53:33;;;;;;;12.55;7.80;;;;;;;18.44;21.94;101992.06;10331536;28;20034;-89
2022/03/02 13:58:34;;;;;;;12.80;8.48;;;;;;;17.20;23.59;101986.78;10352107;28;20034;-89
2022/03/02 14:03:39;;;;;;;13.38;8.38;;;;;;;16.47;22.89;101987.44;10334555;28;20053;-89
2022/03/02 14:08:42;;;;;;;9.05;6.22;;;;;;;17.01;22.05;101980.78;10356208;28;20030;-80
2022/03/02 14:13:44;;;;;;;11.40;7.65;;;;;;;17.22;22.24;101964.81;10345111;28;20030;-79
2022/03/02 14:18:46;;;;;;;10.83;8.20;;;;;;;17.28;22.49;101970.34;10318343;28;20026;-78
2022/03/02 14:23:49;;;;;;;13.07;7.95;;;;;;;17.14;22.79;101966.28;10351931;28;20044;-78
2022/03/02 14:28:50;;;;;;;14.25;7.28;;;;;;;17.09;21.78;101963.47;10336030;28;20041;-78
2022/03/02 14:33:54;;;;;;;11.52;7.88;;;;;;;16.64;23.64;101952.84;10351585;28;20108;-79
2022/03/02 14:39:00;;;;;;;11.43;8.45;;;;;;;16.21;23.34;101962.56;10345313;28;20452;-79
2022/03/02 14:44:01;;;;;;;12.48;8.90;;;;;;;16.29;22.58;101958.50;10334494;28;20494;-79
2022/03/02 14:49:05;;;;;;;11.83;8.10;;;;;;;16.34;24.13;101951.66;10359859;28;20038;-79
2022/03/02 14:54:06;;;;;;;12.65;7.68;;;;;;;17.33;21.86;101941.41;10363043;28;20025;-79
2022/03/02 14:59:11;;;;;;;13.15;9.48;;;;;;;17.48;21.80;101932.25;10332839;28;20043;-79
2022/03/02 15:04:12;;;;;;;14.93;9.43;;;;;;;18.02;21.12;101937.72;10334051;28;20025;-78
2022/03/02 15:09:13;;;;;;;13.07;8.85;;;;;;;17.70;21.69;101933.91;10334116;28;20030;-78
2022/03/02 15:19:36;;;;;;;10.27;7.83;;;;;;;17.39;22.81;101924.84;10337805;28;20030;-78
2022/03/02 15:24:38;;;;;;;13.73;9.77;;;;;;;16.96;24.09;101916.22;10318505;28;20077;-80
2022/03/02 15:29:39;;;;;;;14.35;10.32;;;;;;;16.71;24.36;101915.25;10332217;28;20041;-78
2022/03/02 15:34:44;;;;;;;14.20;9.25;;;;;;;15.06;25.88;101916.22;10362898;28;20026;-76
2022/03/02 15:39:50;;;;;;;11.80;7.68;;;;;;;13.78;28.84;101917.06;10325762;28;20038;-77
2022/03/02 15:45:02;;;;;;;9.45;7.47;;;;;;;13.18;29.43;101906.91;10348955;28;20476;-77
2022/03/02 15:50:15;;;;;;;12.82;8.30;;;;;;;12.43;31.72;101903.66;10348921;28;20038;-77
2022/03/02 15:55:20;;;;;;;15.15;9.27;;;;;;;12.20;31.54;101900.63;10339425;28;20062;-77
2022/03/02 16:00:32;;;;;;;9.85;7.68;;;;;;;11.68;30.96;101894.13;10332027;28;20038;-76
2022/03/02 16:05:37;;;;;;;12.13;7.35;;;;;;;11.52;30.24;101887.06;10335558;28;20133;-75
2022/03/02 16:10:38;;;;;;;11.77;8.23;;;;;;;11.34;31.51;101889.47;10350172;28;20514;-76
2022/03/02 16:15:48;;;;;;;11.38;7.63;;;;;;;10.82;33.32;101901.13;10340701;28;20056;-76
2022/03/02 16:20:52;;;;;;;12.25;8.18;;;;;;;10.28;34.79;101900.28;10329351;28;20358;-76
2022/03/02 16:25:54;;;;;;;15.77;9.00;;;;;;;9.89;33.97;101891.63;10336824;28;20542;-76
2022/03/02 16:30:56;;;;;;;12.30;8.85;;;;;;;9.41;34.98;101894.53;10313208;28;20088;-76
2022/03/02 16:35:56;;;;;;;14.10;8.23;;;;;;;9.06;35.48;101892.97;10314208;28;20101;-79
2022/03/02 16:40:57;;;;;;;13.63;8.88;;;;;;;8.62;39.78;101895.16;10336324;28;20074;-79
2022/03/02 16:46:01;;;;;;;12.90;8.48;;;;;;;8.06;40.92;101896.28;10350420;28;20460;-79
2022/03/02 16:51:01;;;;;;;13.45;8.75;;;;;;;7.56;45.10;101889.06;10362429;28;20034;-78
2022/03/02 16:56:02;;;;;;;14.38;10.48;;;;;;;7.03;46.22;101900.66;10348698;28;20517;-79
2022/03/02 17:01:03;;;;;;;13.00;7.78;;;;;;;6.49;45.73;101898.06;10330891;28;20044;-79
2022/03/02 17:11:26;;;;;;;17.73;8.95;;;;;;;5.82;50.84;101900.44;10342841;28;20536;-79
2022/03/02 17:16:26;;;;;;;17.33;10.43;;;;;;;5.38;52.64;101898.50;10362965;28;20116;-79
2022/03/02 17:21:27;;;;;;;18.10;8.40;;;;;;;4.89;54.06;101906.47;10351131;28;20070;-78
2022/03/02 17:26:28;;;;;;;14.38;8.77;;;;;;;4.62;55.66;101915.34;10329788;28;20461;-78
2022/03/02 17:31:29;;;;;;;11.60;8.13;;;;;;;4.27;55.43;101911.41;10302952;28;20038;-79
2022/03/02 17:36:32;;;;;;;15.90;9.20;;;;;;;3.94;57.37;101908.50;10316196;28;20030;-78
2022/03/02 17:41:32;;;;;;;15.20;8.63;;;;;;;3.75;57.63;101913.66;10327089;28;20206;-78
2022/03/02 17:46:34;;;;;;;18.05;9.43;;;;;;;3.57;58.79;101914.56;10303144;28;20490;-77
2022/03/02 17:51:35;;;;;;;16.80;9.60;;;;;;;3.28;59.62;101918.84;10305503;28;20086;-78
2022/03/02 17:56:37;;;;;;;15.60;9.48;;;;;;;3.07;61.10;101915.13;10287176;28;20109;-78
2022/03/02 18:01:37;;;;;;;12.25;7.78;;;;;;;2.81;59.96;101905.81;10290917;28;20479;-78
2022/03/02 18:06:38;;;;;;;16.63;8.55;;;;;;;2.61;62.06;101903.91;10310942;28;20022;-76
2022/03/02 18:11:39;;;;;;;15.02;9.27;;;;;;;2.47;62.89;101910.31;10298471;28;20026;-77
2022/03/02 18:16:40;;;;;;;19.70;10.93;;;;;;;2.33;64.71;101914.16;10310234;28;20113;-77
2022/03/02 18:21:41;;;;;;;19.20;10.77;;;;;;;2.15;65.12;101905.50;10283728;28;20042;-77
2022/03/02 18:26:53;;;;;;;19.83;10.82;;;;;;;1.96;65.54;101915.69;10314100;28;20034;-76
2022/03/02 18:31:53;;;;;;;16.97;10.27;;;;;;;1.92;66.79;101905.81;10310452;28;20149;-77
2022/03/02 18:36:54;;;;;;;16.25;10.35;;;;;;;1.88;67.75;101910.69;10310850;28;20046;-76
2022/03/02 18:41:55;;;;;;;26.10;11.27;;;;;;;1.80;68.49;101901.25;10309540;28;20042;-76
2022/03/02 18:46:55;;;;;;;18.55;11.07;;;;;;;1.80;68.68;101903.84;10291090;28;20049;-75
2022/03/02 18:51:56;;;;;;;17.50;9.88;;;;;;;1.66;67.40;101904.13;10289523;28;20034;-78
2022/03/02 18:56:57;;;;;;;19.65;11.00;;;;;;;1.55;67.37;101908.22;10295982;28;20039;-79
2022/03/02 19:01:57;;;;;;;18.70;10.30;;;;;;;1.67;67.32;101903.38;10309296;28;20113;-78
2022/03/02 19:06:58;;;;;;;19.40;11.27;;;;;;;1.55;66.86;101903.97;10293589;28;20062;-79
2022/03/02 19:11:59;;;;;;;21.00;10.25;;;;;;;1.57;67.62;101907.63;10298014;28;20100;-79
2022/03/02 19:17:01;;;;;;;17.35;11.65;;;;;;;1.54;66.37;101907.31;10314154;28;20062;-79
2022/03/02 19:22:02;;;;;;;18.00;12.32;;;;;;;1.48;68.24;101903.19;10307934;28;20541;-78
2022/03/02 19:27:03;;;;;;;21.58;12.75;;;;;;;1.26;68.81;101903.59;10311507;28;20030;-78
2022/03/02 19:32:05;;;;;;;19.17;12.65;;;;;;;1.00;69.47;101912.16;10307677;28;20368;-78
2022/03/02 19:37:06;;;;;;;21.90;12.18;;;;;;;0.80;70.44;101910.09;10310319;28;20030;-79
2022/03/02 19:42:06;;;;;;;26.38;14.20;;;;;;;0.65;71.31;101915.50;10284406;28;20252;-79
2022/03/02 19:47:09;;;;;;;24.55;13.15;;;;;;;0.49;71.93;101909.50;10342016;28;20101;-78
2022/03/02 19:52:09;;;;;;;22.20;14.88;;;;;;;0.37;72.91;101914.25;10331195;28;20038;-78
2022/03/02 19:57:10;;;;;;;19.83;13.93;;;;;;;0.18;72.72;101906.25;10315879;28;20070;-78
2022/03/02 20:02:11;;;;;;;22.55;13.45;;;;;;;0.02;73.88;101914.91;10324125;28;20129;-79
2022/03/02 20:07:12;;;;;;;23.20;14.00;;;;;;;-0.11;73.66;101902.38;10349779;28;20036;-79
2022/03/02 20:12:12;;;;;;;27.75;14.60;;;;;;;-0.18;74.75;101902.47;10319147;28;20773;-78
2022/03/02 20:17:13;;;;;;;21.17;13.48;;;;;;;-0.28;74.17;101885.16;10313041;28;20483;-79
2022/03/02 20:22:13;;;;;;;25.67;14.25;;;;;;;-0.40;74.10;101889.88;10314173;28;20048;-79
2022/03/02 20:27:14;;;;;;;21.80;13.93;;;;;;;-0.52;75.11;101892.03;10336972;28;20121;-79
2022/03/02 20:32:14;;;;;;;22.33;15.35;;;;;;;-0.48;75.14;101901.91;10335803;28;20030;-79
2022/03/02 20:37:15;;;;;;;18.92;13.23;;;;;;;-0.52;76.54;101898.84;10314536;28;20030;-79
2022/03/02 20:42:15;;;;;;;27.45;15.50;;;;;;;-0.58;76.47;101903.31;10328976;28;20072;-78
2022/03/02 20:47:16;;;;;;;28.88;14.45;;;;;;;-0.54;76.54;101906.41;10284984;28;20134;-79
2022/03/02 20:52:17;;;;;;;21.92;14.57;;;;;;;-0.48;75.32;101909.63;10288188;28;20038;-79
2022/03/02 20:57:18;;;;;;;26.35;13.85;;;;;;;-0.55;74.93;101911.34;10291383;28;20040;-78
2022/03/02 21:02:19;;;;;;;24.42;12.95;;;;;;;-0.68;77.00;101911.69;10301313;28;20042;-78
2022/03/02 21:07:19;;;;;;;26.63;14.35;;;;;;;-0.50;76.82;101912.78;10304447;28;20090;-78
2022/03/02 21:12:20;;;;;;;22.45;13.05;;;;;;;-0.56;75.41;101912.09;10304445;28;20128;-79
2022/03/02 21:17:20;;;;;;;18.75;12.55;;;;;;;-0.81;75.83;101900.06;10291385;28;20030;-79
2022/03/02 21:22:21;;;;;;;21.48;13.27;;;;;;;-0.96;77.13;101899.28;10305861;28;20045;-78
2022/03/02 21:27:22;;;;;;;24.58;13.48;;;;;;;-1.00;77.01;101899.69;10310052;28;20031;-78
2022/03/02 21:32:23;;;;;;;31.40;16.23;;;;;;;-0.98;77.36;101882.78;10289197;28;20038;-78
2022/03/02 21:37:23;;;;;;;26.83;14.67;;;;;;;-0.97;77.98;101884.59;10276693;28;20031;-79
2022/03/02 21:42:24;;;;;;;24.10;14.60;;;;;;;-0.98;78.02;101893.06;10324475;28;20145;-79
2022/03/02 21:47:24;;;;;;;22.60;14.57;;;;;;;-1.01;78.69;101890.16;10321744;28;20046;-79
2022/03/02 21:52:25;;;;;;;27.80;16.83;;;;;;;-1.07;78.04;101885.25;10310570;28;20035;-79
2022/03/02 21:57:25;;;;;;;26.52;16.55;;;;;;;-1.19;77.71;101881.31;10295948;28;20483;-79
2022/03/02 22:02:26;;;;;;;25.20;16.50;;;;;;;-1.29;77.74;101875.91;10264277;28;20399;-79
2022/03/02 22:07:26;;;;;;;18.65;11.27;;;;;;;-1.47;78.21;101878.25;10301000;28;20838;-78
2022/03/02 22:12:28;;;;;;;27.30;14.63;;;;;;;-1.59;79.48;101888.03;10288830;28;20122;-79
2022/03/02 22:17:29;;;;;;;27.23;16.00;;;;;;;-1.69;79.89;101888.66;10302126;28;20492;-79
2022/03/02 22:22:29;;;;;;;28.83;17.50;;;;;;;-1.72;79.24;101882.25;10319128;28;20044;-79
2022/03/02 22:27:29;;;;;;;33.33;18.02;;;;;;;-1.84;80.31;101885.25;10331018;28;20463;-79
2022/03/02 22:32:30;;;;;;;29.77;15.63;;;;;;;-1.88;80.37;101880.53;10296313;28;20066;-79
2022/03/02 22:37:31;;;;;;;24.45;14.50;;;;;;;-1.88;80.59;101877.94;10297247;28;20057;-79
2022/03/02 22:42:31;;;;;;;28.23;16.47;;;;;;;-2.03;80.33;101889.03;10336539;28;20078;-78
2022/03/02 22:47:32;;;;;;;26.80;17.23;;;;;;;-2.04;79.89;101889.78;10300164;28;20054;-78
2022/03/02 22:52:34;;;;;;;26.05;16.85;;;;;;;-2.06;78.86;101887.03;10319076;28;20042;-78
2022/03/02 22:57:35;;;;;;;26.10;15.75;;;;;;;-2.15;78.89;101886.00;10298816;28;20026;-78